createdAt,value
2019-04-21T05:24:16.523Z,30.95
2019-04-21T05:28:58.891Z,30.55
2019-04-21T05:34:22.158Z,29.60
2019-04-21T05:39:42.101Z,30.23
2019-04-21T05:44:59.829Z,29.27
2019-04-21T05:50:02.423Z,30.25
2019-04-21T05:55:09.597Z,28.17
2019-04-21T06:00:23.697Z,29.50
2019-04-21T06:10:34.913Z,29.42
2019-04-21T06:15:44.615Z,28.62
2019-04-21T06:20:51.632Z,29.70
2019-04-21T06:31:48.103Z,29.72
2019-04-21T06:37:04.369Z,30.08
2019-04-21T06:41:58.597Z,29.63
2019-04-21T06:47:16.180Z,30.37
2019-04-21T06:52:33.164Z,30.77
2019-04-21T06:57:22.060Z,30.82
2019-04-21T07:07:41.856Z,30.25
2019-04-21T07:12:43.083Z,30.75
2019-04-21T07:17:45.383Z,29.95
2019-04-21T07:22:54.169Z,29.85
2019-04-21T07:28:04.021Z,30.30
2019-04-21T07:33:21.935Z,29.92
2019-04-21T07:38:19.503Z,30.15
2019-04-21T07:43:17.658Z,28.77
2019-04-21T07:48:37.773Z,30.25
2019-04-21T07:53:57.810Z,30.55
2019-04-21T07:59:02.638Z,29.50
2019-04-21T08:04:14.767Z,30.52
2019-04-21T08:09:12.277Z,29.10
2019-04-21T08:14:24.023Z,29.57
2019-04-21T08:19:26.290Z,28.90
2019-04-21T08:24:35.089Z,30.25
2019-04-21T08:29:42.989Z,29.42
2019-04-21T08:34:55.138Z,28.95
2019-04-21T08:40:04.957Z,29.75
2019-04-21T08:44:52.484Z,29.98
2019-04-21T08:50:03.500Z,29.52
2019-04-21T08:55:12.228Z,30.15
2019-04-21T09:00:46.806Z,29.55
2019-04-21T09:05:49.362Z,29.82
2019-04-21T09:10:54.687Z,30.80
2019-04-21T09:15:58.088Z,30.52
2019-04-21T09:21:07.542Z,30.20
2019-04-21T09:26:14.115Z,30.02
2019-04-21T09:31:03.241Z,29.37
2019-04-21T09:36:08.578Z,29.15
2019-04-21T09:41:15.515Z,30.57
2019-04-21T09:46:16.706Z,30.25
2019-04-21T09:51:20.951Z,31.00
2019-04-21T09:56:35.964Z,29.65
2019-04-21T10:01:49.056Z,30.62
2019-04-21T10:06:39.954Z,29.85
2019-04-21T10:11:45.847Z,29.67
2019-04-21T10:16:57.254Z,29.92
2019-04-21T10:22:02.213Z,30.77
2019-04-21T10:27:08.563Z,29.27
2019-04-21T10:32:13.341Z,30.72
2019-04-21T10:37:18.798Z,29.30
2019-04-21T10:42:23.657Z,29.70
2019-04-21T10:47:29.342Z,29.63
2019-04-21T10:52:37.950Z,29.65
2019-04-21T10:57:44.388Z,29.32
2019-04-21T11:03:06.614Z,29.50
2019-04-21T11:08:22.626Z,29.20
2019-04-21T11:13:16.891Z,29.95
2019-04-21T11:18:21.916Z,30.17
2019-04-21T11:23:27.008Z,28.95
2019-04-21T11:28:31.330Z,29.90
2019-04-21T11:33:35.705Z,29.80
2019-04-21T11:38:58.426Z,28.52
2019-04-21T11:43:48.752Z,29.30
2019-04-21T11:48:54.610Z,28.23
2019-04-21T11:53:59.323Z,27.15
2019-04-21T11:59:03.889Z,27.37
2019-04-21T12:04:09.760Z,26.35
2019-04-21T12:09:14.708Z,24.80
2019-04-21T12:14:19.896Z,26.85
2019-04-21T12:19:25.031Z,26.02
2019-04-21T12:24:32.845Z,25.37
2019-04-21T12:29:37.785Z,25.52
2019-04-21T12:34:42.127Z,23.22
2019-04-21T12:39:46.349Z,22.27
2019-04-21T12:44:51.735Z,22.70
2019-04-21T12:49:56.974Z,21.82
2019-04-21T12:55:01.748Z,20.00
2019-04-21T13:00:09.000Z,20.90
2019-04-21T13:05:13.582Z,22.22
2019-04-21T13:10:18.296Z,21.10
2019-04-21T13:15:22.676Z,19.37
2019-04-21T13:20:27.455Z,20.25
2019-04-21T13:25:31.821Z,19.05
2019-04-21T13:30:36.256Z,20.35
2019-04-21T13:35:41.333Z,22.15
2019-04-21T13:41:12.163Z,20.17
2019-04-21T13:46:01.853Z,18.37
2019-04-21T13:51:07.145Z,20.52
2019-04-21T13:56:11.443Z,21.35
2019-04-21T14:01:16.030Z,20.52
2019-04-21T14:06:20.509Z,20.50
2019-04-21T14:11:25.151Z,18.77
2019-04-21T14:16:29.765Z,20.72
2019-04-21T14:21:34.220Z,20.35
2019-04-21T14:26:38.628Z,20.57
2019-04-21T14:31:44.250Z,19.42
2019-04-21T14:36:48.594Z,18.67
2019-04-21T14:41:53.843Z,18.92
2019-04-21T14:47:05.319Z,19.27
2019-04-21T14:52:19.015Z,19.07
2019-04-21T14:57:23.299Z,20.27
2019-04-21T15:02:27.785Z,18.70
2019-04-21T15:07:33.079Z,19.37
2019-04-21T15:12:37.969Z,20.20
2019-04-21T15:17:44.123Z,21.02
2019-04-21T15:22:48.472Z,19.65
2019-04-21T15:27:52.874Z,19.30
2019-04-21T15:32:58.112Z,18.35
2019-04-21T15:38:02.442Z,20.23
2019-04-21T15:43:06.661Z,18.62
2019-04-21T15:48:12.006Z,18.17
2019-04-21T15:53:21.621Z,17.98
2019-04-21T15:58:28.355Z,18.55
2019-04-21T16:03:32.752Z,19.27
2019-04-21T16:08:37.377Z,19.42
2019-04-21T16:13:41.749Z,20.02
2019-04-21T16:18:46.111Z,20.08
2019-04-21T16:23:50.739Z,17.87
2019-04-21T16:28:57.440Z,20.10
2019-04-21T16:34:02.992Z,19.65
2019-04-21T16:39:07.759Z,17.80
2019-04-21T16:44:13.307Z,17.70
2019-04-21T16:49:17.995Z,17.80
2019-04-21T16:54:24.045Z,18.00
2019-04-21T16:59:30.596Z,14.85
2019-04-21T17:04:36.333Z,13.78
2019-04-21T17:09:40.912Z,14.15
2019-04-21T17:15:01.533Z,12.68
2019-04-21T17:19:55.612Z,12.85
2019-04-21T17:24:58.263Z,14.47
2019-04-21T17:30:04.328Z,12.05
2019-04-21T17:35:10.060Z,13.00
2019-04-21T17:40:21.837Z,13.25
2019-04-21T17:45:26.916Z,12.23
2019-04-21T17:50:45.449Z,12.45
2019-04-21T17:56:06.356Z,12.23
2019-04-21T18:01:20.874Z,14.43
2019-04-21T18:06:20.936Z,13.18
2019-04-21T18:11:22.397Z,13.98
2019-04-21T18:16:25.067Z,12.95
2019-04-21T18:21:23.048Z,13.78
2019-04-21T18:26:38.005Z,13.50
2019-04-21T18:31:42.729Z,12.55
2019-04-21T18:36:51.713Z,14.10
2019-04-21T18:42:17.167Z,13.18
2019-04-21T18:47:25.665Z,12.47
2019-04-21T18:52:22.402Z,13.75
2019-04-21T18:57:30.926Z,14.40
2019-04-21T19:02:28.043Z,14.87
2019-04-21T19:07:58.319Z,14.63
2019-04-21T19:20:04.693Z,14.83
2019-04-21T20:27:03.613Z,17.45
2019-04-21T21:22:14.467Z,18.20
2019-04-21T21:27:31.105Z,18.95
2019-04-21T21:32:41.199Z,18.70
2019-04-21T21:38:09.939Z,18.15
2019-04-21T21:43:12.895Z,17.80
2019-04-21T21:48:36.668Z,17.95
2019-04-21T22:00:23.943Z,18.90
2019-04-21T22:18:36.246Z,19.77
2019-04-21T22:48:26.287Z,18.70
